Time;durP1;ratioP1;P1;durP2;ratioP2;P2;SDS_P1;SDS_P2;PMS_P1;PMS_P2;Temp;Humidity;BMP_temperature;BMP_pressure;BME280_temperature;BME280_humidity;BME280_pressure;Samples;Min_cycle;Max_cycle;Signal;HPM_P1;HPM_P2
2022/02/04 00:01:12;;;;;;;21.85;16.10;;;9.70;99.90;;;9.88;91.27;101052.28;5056088;28;20045;-57
2022/02/04 00:09:21;;;;;;;24.95;15.80;;;9.60;99.90;;;9.84;90.83;101026.75;5055342;28;20375;-57
2022/02/04 00:20:26;;;;;;;23.20;16.88;;;9.70;99.90;;;9.91;90.13;101027.66;5055322;28;20041;-58
2022/02/04 00:23:04;;;;;;;21.15;16.42;;;9.70;99.90;;;9.96;90.15;101021.47;5055056;28;20490;-58
2022/02/04 00:25:45;;;;;;;19.90;14.82;;;9.70;99.90;;;10.00;89.67;101022.34;5055301;28;20040;-58
2022/02/04 00:28:20;;;;;;;;;;;9.70;99.90;;;9.94;90.05;101025.88;5055401;28;20099;-58
2022/02/04 00:31:02;;;;;;;18.17;13.07;;;9.70;99.90;;;10.03;89.76;101017.06;5054393;28;19997;-58
2022/02/04 00:33:33;;;;;;;17.08;12.27;;;9.70;99.90;;;9.90;89.81;101008.25;5054910;28;20037;-58
2022/02/04 00:36:10;;;;;;;;;;;9.80;99.90;;;9.99;90.01;101018.81;5055245;28;20091;-58
2022/02/04 00:38:42;;;;;;;17.65;10.93;;;9.80;99.90;;;9.87;90.22;101020.59;5054855;28;20271;-58
2022/02/04 00:41:13;;;;;;;19.80;11.07;;;9.70;99.90;;;9.94;89.93;101025.00;5054744;28;20107;-58
2022/02/04 00:43:43;;;;;;;16.67;10.35;;;9.70;99.90;;;9.93;89.64;101013.53;5055202;28;20182;-58
2022/02/04 00:46:15;;;;;;;17.58;10.85;;;9.70;99.90;;;9.89;90.12;101003.00;5070191;28;20067;-58
2022/02/04 00:49:08;;;;;;;15.23;9.98;;;9.60;99.90;;;9.89;90.27;101011.78;5054496;28;20072;-58
2022/02/04 00:51:47;;;;;;;14.73;9.25;;;9.60;99.90;;;9.91;90.16;101007.38;5054548;28;20048;-57
2022/02/04 00:54:23;;;;;;;18.30;10.20;;;9.70;99.90;;;9.83;90.42;101011.75;5054397;28;20037;-58
2022/02/04 00:57:08;;;;;;;12.90;9.13;;;9.60;99.90;;;9.74;90.41;100969.50;5054946;28;20099;-58
2022/02/04 01:13:36;;;;;;;17.52;9.32;;;9.70;99.90;;;9.87;90.42;100983.59;5054134;28;20045;-58
2022/02/04 01:27:14;;;;;;;18.88;9.00;;;9.70;99.90;;;9.96;90.59;100981.84;5053906;28;20068;-58
2022/02/04 01:29:54;;;;;;;21.73;10.68;;;9.70;99.90;;;9.99;90.42;100975.66;5053974;28;20037;-58
2022/02/04 01:32:23;;;;;;;20.25;9.23;;;9.70;99.90;;;9.87;90.52;100965.13;5053794;28;20037;-58
2022/02/04 01:34:51;;;;;;;17.90;10.05;;;9.70;99.90;;;9.94;90.52;100988.00;5053653;28;20040;-58
2022/02/04 01:37:20;;;;;;;22.42;10.95;;;9.70;99.90;;;9.93;90.29;100965.97;5069093;28;20094;-58
2022/02/04 01:39:50;;;;;;;18.77;10.15;;;9.70;99.90;;;10.01;90.26;100982.72;5053594;28;20119;-58
2022/02/04 01:42:18;;;;;;;23.70;9.70;;;9.70;99.90;;;9.99;90.21;100976.53;5052547;28;20099;-58
2022/02/04 01:44:47;;;;;;;20.75;9.63;;;9.80;99.90;;;9.96;90.36;100973.91;5053492;28;20443;-58
2022/02/04 01:47:15;;;;;;;18.17;8.88;;;9.70;99.90;;;9.92;90.78;100955.41;5053486;28;20098;-58
2022/02/04 01:49:45;;;;;;;17.42;9.75;;;9.80;99.90;;;9.81;90.58;100952.75;5053408;28;20044;-58
2022/02/04 01:52:14;;;;;;;18.08;9.15;;;9.70;99.90;;;10.00;90.62;100977.44;5053408;28;20190;-58
2022/02/04 01:54:42;;;;;;;17.75;8.65;;;9.70;99.90;;;10.06;90.54;100971.25;5053191;28;20073;-58
2022/02/04 01:57:12;;;;;;;23.17;9.90;;;9.80;99.90;;;9.99;90.35;100971.25;5053248;28;20068;-58
2022/02/04 01:59:40;;;;;;;16.63;9.10;;;9.80;99.90;;;9.97;90.70;100966.84;5052174;28;20087;-58
2022/02/04 02:02:09;;;;;;;16.33;7.88;;;9.70;99.90;;;9.98;90.86;100956.31;5053421;28;20044;-58
2022/02/04 02:04:37;;;;;;;19.15;8.80;;;9.80;99.90;;;10.01;90.60;100958.03;5053166;28;20051;-57
2022/02/04 02:07:11;;;;;;;22.80;9.68;;;9.80;99.90;;;9.92;91.03;100953.66;5053162;28;20067;-58
2022/02/04 02:09:50;;;;;;;19.75;8.85;;;9.70;99.90;;;9.92;90.49;100952.78;5053135;28;20037;-58
2022/02/04 02:12:22;;;;;;;19.52;8.93;;;9.70;99.90;;;9.87;90.49;100938.69;5053209;28;20402;-58
2022/02/04 02:14:59;;;;;;;21.08;9.93;;;9.70;99.90;;;9.14;90.56;100818.13;5052942;28;20047;-58
2022/02/04 02:34:48;;;;;;;17.77;8.13;;;9.60;99.90;;;9.80;90.40;100935.16;5052831;28;20037;-58
2022/02/04 02:43:13;;;;;;;16.73;7.00;;;9.70;99.90;;;9.98;89.68;100926.34;5053021;28;20107;-58
2022/02/04 02:46:13;;;;;;;13.82;6.93;;;9.70;99.90;;;9.90;89.60;100894.66;5052658;28;20045;-58
2022/02/04 02:49:01;;;;;;;16.20;7.13;;;9.70;99.90;;;9.86;89.53;100927.25;5052570;28;20106;-58
2022/02/04 02:54:54;;;;;;;13.75;6.90;;;9.70;99.90;;;9.85;89.92;100890.28;4971651;28;20638;-58
2022/02/04 02:57:57;;;;;;;12.85;7.00;;;9.70;99.90;;;9.85;89.42;100899.06;5049073;28;20084;-58
2022/02/04 03:00:34;;;;;;;16.63;7.28;;;9.60;99.90;;;9.83;89.58;100902.59;5052359;28;20045;-58
2022/02/04 03:03:07;;;;;;;17.73;5.70;;;9.60;99.90;;;9.88;89.58;100885.84;5052429;28;20064;-58
2022/02/04 03:05:36;;;;;;;15.70;6.00;;;9.70;99.90;;;9.76;89.91;100891.16;5052623;28;20064;-58
2022/02/04 03:08:05;;;;;;;12.32;5.55;;;9.60;99.90;;;9.76;89.92;100883.22;5052323;28;20120;-58
2022/02/04 03:10:34;;;;;;;13.30;6.23;;;9.60;99.90;;;9.81;89.79;100889.38;5052367;28;20539;-58
2022/02/04 03:13:06;;;;;;;19.05;7.38;;;9.60;99.90;;;9.79;90.11;100893.78;5051196;28;20080;-58
2022/02/04 03:15:36;;;;;;;13.27;6.20;;;9.60;99.90;;;9.81;90.14;100891.16;5052260;28;20090;-58
2022/02/04 03:18:08;;;;;;;16.00;6.20;;;9.60;99.90;;;9.87;90.00;100878.78;5052240;28;20079;-58
2022/02/04 03:20:46;;;;;;;18.73;5.68;;;9.60;99.90;;;9.91;89.64;100883.19;5052508;28;20079;-58
2022/02/04 03:23:14;;;;;;;15.60;6.18;;;9.70;99.90;;;9.91;89.54;100877.91;5052258;28;20045;-59
2022/02/04 03:25:48;;;;;;;19.15;6.45;;;9.70;99.90;;;9.89;89.64;100877.03;5052176;28;20099;-58
2022/02/04 03:28:23;;;;;;;13.40;5.32;;;9.70;99.90;;;9.89;90.06;100868.25;5052190;28;20474;-58
2022/02/04 03:30:53;;;;;;;14.02;5.60;;;9.70;99.90;;;9.84;90.48;100865.59;5052157;28;20060;-57
2022/02/04 03:33:25;;;;;;;10.15;5.70;;;9.70;99.90;;;9.87;90.23;100870.88;5052417;28;20049;-58
2022/02/04 03:35:53;;;;;;;12.00;5.43;;;9.70;99.90;;;9.94;89.99;100862.06;5052113;28;20045;-58
2022/02/04 03:38:23;;;;;;;17.67;6.88;;;9.70;99.90;;;9.93;90.18;100852.38;5051019;28;20033;-57
2022/02/04 03:40:51;;;;;;;16.70;5.45;;;9.80;99.90;;;9.99;90.31;100864.69;5051989;28;20132;-58
2022/02/04 03:43:21;;;;;;;22.50;6.00;;;9.70;99.90;;;9.94;90.56;100867.34;5052067;28;20124;-58
2022/02/04 03:45:49;;;;;;;14.13;5.80;;;9.70;99.90;;;9.98;90.50;100869.13;5052525;28;20040;-58
2022/02/04 03:48:17;;;;;;;20.65;6.25;;;9.80;99.90;;;10.04;90.68;100868.22;5052122;28;20136;-58
2022/02/04 03:50:46;;;;;;;15.43;5.80;;;9.80;99.90;;;10.07;90.85;100859.38;5051932;28;20069;-59
2022/02/04 03:53:16;;;;;;;18.40;6.18;;;9.80;99.90;;;10.07;90.75;100852.34;5067622;28;20065;-58
2022/02/04 03:55:45;;;;;;;14.33;6.17;;;9.80;99.90;;;9.94;91.09;100855.91;5051860;28;20041;-58
2022/02/04 03:58:14;;;;;;;16.88;6.03;;;9.80;99.90;;;9.99;91.44;100865.56;5050795;28;20128;-58
2022/02/04 04:00:44;;;;;;;13.63;6.05;;;9.80;99.90;;;9.94;91.21;100854.16;5051856;28;20037;-58
2022/02/04 04:03:12;;;;;;;17.05;6.15;;;9.70;99.90;;;9.93;91.10;100852.38;5052298;28;20053;-58
2022/02/04 04:05:45;;;;;;;16.83;6.00;;;9.70;99.90;;;9.94;91.05;100846.22;5054482;28;20051;-58
2022/02/04 04:08:16;;;;;;;13.73;6.18;;;9.70;99.90;;;9.93;90.51;100833.88;5055322;28;20452;-58
2022/02/04 04:10:44;;;;;;;17.00;6.30;;;9.80;99.90;;;9.87;91.26;100846.25;5055418;28;20060;-58
2022/02/04 04:13:14;;;;;;;13.38;5.57;;;9.70;99.90;;;9.89;91.04;100837.41;5055388;28;20466;-58
2022/02/04 04:15:44;;;;;;;11.60;5.65;;;9.70;99.90;;;9.99;90.41;100849.72;5055217;28;20045;-58
2022/02/04 04:18:13;;;;;;;14.93;5.60;;;9.70;99.90;;;9.90;90.85;100833.91;5055296;28;20045;-58
2022/02/04 04:20:43;;;;;;;15.70;6.20;;;9.70;99.90;;;9.90;90.97;100833.00;5055232;28;20500;-58
2022/02/04 04:23:12;;;;;;;10.63;4.63;;;9.70;99.90;;;9.90;90.91;100836.53;5055140;28;20041;-58
2022/02/04 04:25:41;;;;;;;14.27;5.30;;;9.70;99.90;;;9.90;91.13;100820.69;5055009;28;20076;-57
2022/02/04 04:28:09;;;;;;;11.20;5.22;;;9.70;99.90;;;9.97;90.77;100833.00;5054991;28;20118;-58
2022/02/04 04:30:38;;;;;;;10.77;6.10;;;9.70;99.90;;;10.01;90.40;100829.47;5055047;28;20124;-58
2022/02/04 04:33:10;;;;;;;14.50;5.25;;;9.80;99.90;;;9.98;90.44;100837.41;5054809;28;20048;-58
2022/02/04 04:35:40;;;;;;;14.73;5.22;;;9.80;99.90;;;10.00;90.55;100838.28;5054865;28;20041;-58
2022/02/04 04:38:13;;;;;;;13.52;5.43;;;9.80;99.90;;;9.95;90.50;100837.41;5055233;28;20053;-58
2022/02/04 04:43:55;;;;;;;10.65;4.90;;;9.80;99.90;;;9.99;90.05;100835.63;4995860;28;20102;-58
2022/02/04 04:46:48;;;;;;;12.07;5.80;;;9.80;99.90;;;9.97;90.40;100826.81;5054877;28;20439;-58
2022/02/04 05:28:37;;;;;;;11.85;5.95;;;9.70;99.90;;;10.03;89.51;100806.56;5054333;28;20448;-58
2022/02/04 05:31:05;;;;;;;12.25;5.68;;;9.80;99.90;;;9.99;89.59;100785.41;5054128;28;20052;-58
2022/02/04 05:33:33;;;;;;;11.07;6.22;;;9.80;99.90;;;9.98;89.71;100760.78;5054070;28;20039;-58
2022/02/04 05:36:04;;;;;;;11.15;6.40;;;9.80;99.90;;;10.05;89.16;100766.91;5052466;28;20065;-58
2022/02/04 05:38:35;;;;;;;9.45;6.30;;;9.80;99.90;;;10.12;89.34;100767.81;5052637;28;20052;-58
2022/02/04 05:41:06;;;;;;;12.57;6.45;;;9.90;99.90;;;10.03;89.25;100772.19;5052571;28;20052;-58
2022/02/04 05:43:38;;;;;;;10.40;5.75;;;9.80;99.90;;;10.06;88.98;100754.56;5053492;28;20057;-58
2022/02/04 05:46:12;;;;;;;8.07;6.32;;;9.90;99.90;;;10.05;89.21;100756.34;5053793;28;20045;-58
2022/02/04 05:48:45;;;;;;;11.82;6.30;;;9.80;99.90;;;9.99;89.02;100757.25;5053574;28;20041;-57
2022/02/04 05:51:29;;;;;;;11.68;7.15;;;9.80;99.90;;;9.93;89.17;100751.97;5053427;28;20041;-58
2022/02/04 05:54:06;;;;;;;10.43;6.68;;;9.80;99.90;;;9.85;89.66;100763.47;5053578;28;20041;-57
2022/02/04 05:56:42;;;;;;;10.95;6.45;;;9.70;99.90;;;9.67;89.94;100718.63;5053322;28;20076;-57
2022/02/04 05:59:20;;;;;;;11.35;7.32;;;9.60;99.90;;;9.81;90.25;100746.72;5053328;28;20037;-58
2022/02/04 06:02:02;;;;;;;10.50;7.07;;;9.60;99.90;;;9.83;90.42;100775.81;5053406;28;20437;-58
2022/02/04 06:04:40;;;;;;;13.35;6.90;;;9.60;99.90;;;9.83;90.85;100742.31;5053264;28;20109;-58
2022/02/04 06:10:32;;;;;;;9.07;8.13;;;9.60;99.90;;;9.68;92.24;100747.66;5052896;28;20068;-58
2022/02/04 06:23:50;;;;;;;12.95;9.80;;;9.60;99.90;;;9.73;93.04;100759.09;5052871;28;20041;-58
2022/02/04 06:26:20;;;;;;;16.58;10.35;;;9.50;99.90;;;9.70;93.31;100721.25;5052819;28;20116;-58
2022/02/04 06:28:49;;;;;;;14.77;10.77;;;9.50;99.90;;;9.62;93.68;100734.47;5052326;28;20413;-58
2022/02/04 06:31:23;;;;;;;12.60;10.15;;;9.50;99.90;;;9.65;94.29;100741.50;5052765;28;20041;-57
2022/02/04 06:33:52;;;;;;;13.10;11.32;;;9.50;99.90;;;9.61;93.92;100730.09;5068176;28;20445;-57
2022/02/04 06:36:20;;;;;;;12.98;10.55;;;9.50;99.90;;;9.57;94.60;100740.66;5052492;28;20124;-58
2022/02/04 06:38:48;;;;;;;12.82;10.70;;;9.40;99.90;;;9.59;94.76;100733.59;5053204;28;20041;-58
2022/02/04 06:41:17;;;;;;;13.00;10.52;;;9.40;99.90;;;9.65;94.34;100736.22;5052653;28;20044;-57
2022/02/04 06:43:47;;;;;;;18.70;10.80;;;9.40;99.90;;;9.68;94.61;100730.94;5052658;28;20088;-58
2022/02/04 06:46:15;;;;;;;14.48;11.50;;;9.50;99.90;;;9.66;94.15;100707.16;5052565;28;20047;-58
2022/02/04 06:48:51;;;;;;;16.10;11.43;;;9.50;99.90;;;9.71;94.31;100712.44;5052482;28;20073;-59
2022/02/04 06:51:20;;;;;;;15.35;12.10;;;9.50;99.90;;;9.75;94.37;100719.47;5053050;28;20482;-58
2022/02/04 06:53:53;;;;;;;19.08;11.95;;;9.50;99.90;;;9.61;94.59;100724.81;5051331;28;20045;-58
2022/02/04 06:56:21;;;;;;;17.85;12.40;;;9.50;99.90;;;9.57;95.00;100720.41;5052411;28;20128;-58
2022/02/04 06:58:51;;;;;;;15.35;12.65;;;9.40;99.90;;;9.62;95.10;100708.06;5052422;28;20098;-58
2022/02/04 07:01:19;;;;;;;15.67;13.97;;;9.40;99.90;;;9.60;95.30;100711.63;5052510;28;20041;-58
2022/02/04 07:03:47;;;;;;;16.88;14.02;;;9.40;99.90;;;9.56;95.30;100686.94;5052633;28;20287;-58
2022/02/04 07:06:17;;;;;;;18.92;15.02;;;9.40;99.90;;;9.64;95.70;100702.81;5052371;28;20045;-58
2022/02/04 07:09:00;;;;;;;18.73;15.30;;;9.40;99.90;;;9.70;95.32;100724.75;5052463;28;20151;-58
2022/02/04 07:11:51;;;;;;;17.42;15.50;;;9.50;99.90;;;9.68;95.40;100705.41;5052305;28;20041;-58
2022/02/04 07:14:30;;;;;;;;;;;9.50;99.90;;;9.63;95.13;100725.69;5052999;28;20068;-58
2022/02/04 07:17:14;;;;;;;20.20;15.80;;;9.50;99.90;;;9.68;95.72;100712.44;5052450;28;20353;-57
2022/02/04 07:19:46;;;;;;;19.92;16.35;;;9.50;99.90;;;9.64;95.94;100716.84;5052372;28;20040;-58
2022/02/04 07:22:15;;;;;;;22.80;16.92;;;9.50;99.90;;;9.66;96.01;100698.38;5052286;28;20059;-58
2022/02/04 07:24:44;;;;;;;20.13;17.38;;;9.50;99.90;;;9.66;95.72;100699.25;5052110;28;20029;-57
2022/02/04 07:27:13;;;;;;;19.27;16.95;;;9.50;99.90;;;9.82;95.64;100718.56;5052152;28;20041;-58
2022/02/04 07:29:45;;;;;;;17.80;15.90;;;9.60;99.90;;;9.82;95.69;100703.59;5052207;28;20044;-58
2022/02/04 07:32:18;;;;;;;17.88;16.02;;;9.60;99.90;;;9.64;95.06;100692.25;5050997;28;20461;-58
2022/02/04 07:35:01;;;;;;;19.35;15.73;;;9.60;99.90;;;9.53;95.38;100651.78;5050863;28;20056;-58
2022/02/04 07:43:05;;;;;;;18.83;15.45;;;9.60;99.90;;;9.86;95.05;100696.53;5054466;28;20565;-58
2022/02/04 07:45:35;;;;;;;17.83;15.93;;;9.60;99.90;;;9.88;95.07;100676.28;5056015;28;20049;-58
2022/02/04 07:48:05;;;;;;;17.60;15.52;;;9.70;99.90;;;9.88;94.79;100706.22;5055464;28;20509;-58
2022/02/04 07:50:34;;;;;;;20.23;13.73;;;9.70;99.90;;;9.90;94.58;100690.34;5055557;28;20045;-58
2022/02/04 07:53:03;;;;;;;18.30;13.30;;;9.70;99.90;;;9.77;94.55;100693.94;5055474;28;20120;-58
2022/02/04 07:55:32;;;;;;;21.05;14.05;;;9.70;99.90;;;9.82;95.33;100682.47;5055575;28;20102;-58
2022/02/04 07:58:00;;;;;;;16.02;13.98;;;9.70;99.90;;;9.88;94.63;100679.81;5055367;28;20124;-58
2022/02/04 08:00:29;;;;;;;16.42;14.25;;;9.70;99.90;;;9.90;94.94;100690.34;5055570;28;20041;-58
2022/02/04 08:03:05;;;;;;;16.27;13.38;;;9.70;99.90;;;9.85;94.69;100663.09;5055544;28;20056;-57
2022/02/04 08:05:34;;;;;;;14.23;12.52;;;9.70;99.90;;;9.86;94.50;100683.31;5055516;28;20482;-57
2022/02/04 08:08:14;;;;;;;13.07;11.75;;;9.70;99.90;;;9.82;94.44;100660.44;5055222;28;20039;-57
2022/02/04 08:10:48;;;;;;;;;;;9.70;99.90;;;9.81;94.95;100649.00;5055769;28;20071;-57
2022/02/04 08:13:38;;;;;;;16.70;12.27;;;9.60;99.90;;;9.75;95.15;100662.25;5055391;28;19975;-57
2022/02/04 08:19:34;;;;;;;11.82;10.60;;;9.60;99.90;;;9.74;94.33;100643.75;5044814;28;20051;-59
2022/02/04 08:28:27;;;;;;;13.90;11.27;;;9.70;99.90;;;9.86;94.59;100649.88;5043418;28;20053;-58
2022/02/04 08:31:23;;;;;;;11.68;10.48;;;9.60;99.90;;;9.86;94.34;100667.47;5054948;28;20045;-58
2022/02/04 08:50:57;;;;;;;16.45;14.27;;;9.70;99.90;;;9.84;95.61;100617.31;5054092;28;20045;-57
2022/02/04 08:56:15;;;;;;;17.05;13.57;;;9.70;99.90;;;9.85;95.34;100608.47;5054267;28;20037;-58
2022/02/04 08:58:49;;;;;;;15.98;13.50;;;9.70;99.90;;;9.88;94.94;100626.97;5054442;28;20118;-59
2022/02/04 09:01:22;;;;;;;15.73;14.15;;;9.70;99.90;;;9.92;95.23;100622.53;5054530;28;20068;-58
2022/02/04 09:03:53;;;;;;;16.23;14.02;;;9.70;99.90;;;9.89;95.30;100583.81;5054401;28;20052;-57
2022/02/04 09:06:25;;;;;;;15.93;14.10;;;9.70;99.90;;;9.95;94.90;100606.66;5054510;28;20099;-57
2022/02/04 09:08:57;;;;;;;15.23;13.63;;;9.80;99.90;;;9.97;94.84;100592.56;5069521;28;20059;-58
2022/02/04 09:11:38;;;;;;;15.70;13.30;;;9.80;99.90;;;10.04;94.38;100578.41;5054172;28;20486;-58
2022/02/04 09:17:08;;;;;;;13.45;11.90;;;9.90;99.90;;;9.93;94.06;100590.81;5052707;28;20052;-58
2022/02/04 09:19:47;;;;;;;13.73;11.98;;;9.90;99.90;;;10.17;93.91;100562.50;5054047;28;20379;-58
2022/02/04 09:22:26;;;;;;;13.25;11.15;;;10.00;99.90;;;10.19;92.88;100592.44;5053923;28;20045;-58
2022/02/04 09:24:56;;;;;;;12.93;10.18;;;10.00;99.90;;;10.25;92.36;100577.44;5069706;28;20049;-58
2022/02/04 09:27:24;;;;;;;11.23;9.57;;;10.10;99.90;;;10.16;92.24;100576.63;5054067;28;20049;-59
2022/02/04 09:29:57;;;;;;;11.65;9.38;;;10.00;99.90;;;10.16;92.57;100579.25;5052748;28;20049;-57
2022/02/04 09:32:25;;;;;;;12.32;10.13;;;10.00;99.90;;;10.20;93.15;100567.78;5053964;28;20431;-59
2022/02/04 09:34:54;;;;;;;12.13;10.52;;;10.00;99.90;;;10.15;93.54;100553.72;5053824;28;20041;-58
2022/02/04 09:37:31;;;;;;;14.60;10.93;;;10.00;99.90;;;10.17;93.80;100595.09;5053746;28;20051;-57
2022/02/04 09:40:01;;;;;;;12.68;11.40;;;10.00;99.90;;;10.23;94.40;100587.13;5053457;28;20055;-58
2022/02/04 09:42:30;;;;;;;16.10;14.18;;;10.00;99.90;;;10.24;94.51;100559.81;5053418;28;20094;-58
2022/02/04 09:44:59;;;;;;;15.23;13.27;;;10.10;99.90;;;10.34;94.69;100564.13;5053607;28;20135;-58
2022/02/04 09:47:34;;;;;;;14.60;13.00;;;10.20;99.90;;;10.25;94.21;100573.91;5053193;28;20079;-58
2022/02/04 09:50:15;;;;;;;14.98;13.30;;;10.10;99.90;;;10.30;94.42;100580.91;5053317;28;20041;-58
2022/02/04 10:07:22;;;;;;;13.80;12.13;;;10.00;99.90;;;10.09;93.51;100553.72;5052488;28;20079;-59
2022/02/04 10:10:18;;;;;;;12.43;11.13;;;10.00;99.90;;;10.08;93.64;100558.16;5053158;28;20052;-58
2022/02/04 10:16:02;;;;;;;13.57;11.30;;;9.90;99.90;;;10.00;93.40;100549.41;5049996;28;20053;-59
2022/02/04 10:18:35;;;;;;;12.57;11.15;;;9.80;99.90;;;10.08;93.19;100549.34;5052971;28;20102;-58
2022/02/04 10:21:06;;;;;;;14.27;10.57;;;9.90;99.90;;;10.06;92.58;100522.06;5053042;28;20045;-59
2022/02/04 10:23:54;;;;;;;12.40;10.50;;;9.90;99.90;;;10.03;92.83;100544.06;5052819;28;20040;-58
2022/02/04 10:26:24;;;;;;;10.40;9.40;;;9.90;99.90;;;9.98;92.02;100504.50;5052782;28;20136;-59
2022/02/04 10:28:55;;;;;;;12.38;10.95;;;9.90;99.90;;;10.04;92.88;100522.91;5052716;28;20099;-58
2022/02/04 10:31:26;;;;;;;10.98;9.65;;;9.90;99.90;;;10.10;92.08;100521.19;5052755;28;20396;-59
2022/02/04 10:34:04;;;;;;;10.05;9.10;;;9.90;99.90;;;10.03;91.88;100499.16;5052752;28;20047;-59
2022/02/04 10:36:43;;;;;;;10.45;9.38;;;9.90;99.90;;;10.04;91.68;100509.72;5053183;28;20048;-58
2022/02/04 10:39:29;;;;;;;8.85;8.02;;;9.90;99.90;;;10.05;91.39;100497.38;5068189;28;20472;-60
2022/02/04 10:42:18;;;;;;;10.05;9.02;;;9.90;99.90;;;9.93;91.48;100494.84;5052503;28;20044;-59
2022/02/04 10:45:18;;;;;;;9.63;8.68;;;9.90;99.90;;;10.03;90.57;100462.16;5067800;28;20147;-59
2022/02/04 10:59:48;;;;;;;9.18;8.27;;;9.80;99.90;;;10.08;89.74;100492.09;5107126;27;1354223;-58
2022/02/04 11:02:36;;;;;;;9.50;8.25;;;9.90;99.90;;;10.00;89.33;100449.88;5130851;28;20054;-57
2022/02/04 11:05:16;;;;;;;8.82;8.05;;;9.90;99.90;;;9.90;89.44;100457.88;5130861;28;20085;-60
2022/02/04 11:37:02;;;;;;;11.20;7.93;;;9.90;99.90;;;10.09;87.95;100411.03;5130255;28;20484;-59
2022/02/04 11:54:44;;;;;;;9.43;7.80;;;9.90;99.90;;;10.12;88.38;100388.16;5129936;28;20043;-60
2022/02/04 11:57:20;;;;;;;11.70;8.52;;;9.90;99.90;;;10.04;88.96;100369.69;5129996;28;20047;-60
2022/02/04 11:59:59;;;;;;;11.73;8.02;;;9.90;99.90;;;9.96;89.97;100339.84;5130425;28;20075;-60
2022/02/04 12:02:37;;;;;;;12.48;8.13;;;9.80;99.90;;;9.99;90.09;100360.94;5129845;28;20567;-59
2022/02/04 12:05:32;;;;;;;11.02;7.55;;;9.80;99.90;;;9.90;90.52;100350.47;5129949;28;20043;-58
2022/02/04 12:08:31;;;;;;;12.75;6.93;;;9.80;99.90;;;9.97;91.30;100343.34;5129627;28;20503;-60
2022/02/04 12:11:06;;;;;;;8.75;7.53;;;9.80;99.90;;;9.88;91.57;100341.69;5115442;28;20048;-58
2022/02/04 12:14:10;;;;;;;10.10;7.82;;;9.70;99.90;;;9.93;92.21;100353.06;5116010;28;20126;-58
2022/02/04 12:17:07;;;;;;;9.43;7.60;;;9.70;99.90;;;9.87;92.07;100339.91;5116388;28;20040;-58
2022/02/04 12:19:38;;;;;;;10.95;7.03;;;9.70;99.90;;;9.71;92.33;100313.69;5115714;28;20412;-58
2022/02/04 12:22:10;;;;;;;12.20;7.22;;;9.60;99.90;;;9.75;93.11;100303.09;5115790;28;20046;-58
2022/02/04 12:24:46;;;;;;;10.30;7.30;;;9.60;99.90;;;9.75;92.79;100321.59;5115748;28;20052;-58
2022/02/04 12:27:37;;;;;;;9.43;7.10;;;9.60;99.90;;;9.79;93.07;100317.97;5115892;28;20101;-58
2022/02/04 12:30:46;;;;;;;13.05;7.75;;;9.60;99.90;;;9.71;93.75;100296.09;5115619;28;20043;-58
2022/02/04 12:33:16;;;;;;;12.60;7.75;;;9.60;99.90;;;9.72;94.29;100289.03;5115547;28;20047;-58
2022/02/04 12:35:44;;;;;;;9.67;8.10;;;9.60;99.90;;;9.74;94.04;100303.09;5115623;28;20119;-59
2022/02/04 12:38:14;;;;;;;12.48;7.72;;;9.60;99.90;;;9.66;94.25;100287.31;5115795;28;20040;-59
2022/02/04 12:40:42;;;;;;;12.77;7.00;;;9.50;99.90;;;9.52;94.17;100280.44;5097180;28;20435;-59
2022/02/04 12:43:12;;;;;;;15.82;7.85;;;9.40;99.90;;;9.59;95.32;100288.28;5115362;28;20104;-60
2022/02/04 12:45:45;;;;;;;11.55;7.22;;;9.40;99.90;;;9.54;95.24;100278.66;5096957;28;20168;-59
2022/02/04 12:48:13;;;;;;;12.30;7.72;;;9.30;99.90;;;9.55;95.66;100280.41;5115410;28;20070;-59
2022/02/04 12:50:44;;;;;;;12.25;7.72;;;9.40;99.90;;;9.57;95.38;100274.22;5096958;28;20551;-59
2022/02/04 12:53:26;;;;;;;12.52;7.40;;;9.40;99.90;;;9.47;95.77;100269.91;5115135;28;20043;-59
2022/02/04 12:56:14;;;;;;;12.18;7.35;;;9.30;99.90;;;9.40;95.83;100270.00;5115079;28;20043;-58
2022/02/04 12:59:08;;;;;;;12.93;7.55;;;9.30;99.90;;;9.45;96.30;100284.91;5114728;28;20051;-58
2022/02/04 13:10:23;;;;;;;11.35;4.18;;;7.70;99.90;;;7.23;91.38;100378.03;5115098;28;20069;-59
2022/02/04 13:12:59;;;;;;;16.55;4.60;;;7.20;99.90;;;7.11;91.69;100379.75;5114799;28;20063;-59
2022/02/04 13:15:32;;;;;;;15.80;5.00;;;7.10;99.90;;;7.17;91.59;100393.78;5115234;28;20044;-58
2022/02/04 13:18:05;;;;;;;10.30;4.40;;;7.10;99.90;;;7.04;92.42;100381.50;5096287;28;20051;-59
2022/02/04 13:20:34;;;;;;;7.88;4.07;;;7.00;99.90;;;6.83;92.33;100386.69;5113988;28;20039;-58
2022/02/04 13:23:08;;;;;;;12.07;4.30;;;6.80;99.90;;;6.68;92.57;100368.25;5095726;28;20134;-57
2022/02/04 13:25:43;;;;;;;8.52;3.72;;;6.80;99.90;;;6.87;92.29;100406.00;5114674;28;20040;-59
2022/02/04 13:28:15;;;;;;;7.40;4.27;;;6.80;99.90;;;6.53;92.22;100402.38;5114363;28;20043;-58
2022/02/04 13:30:59;;;;;;;7.95;4.10;;;6.60;99.90;;;5.60;92.97;100279.34;5114387;28;20043;-58
2022/02/04 13:33:29;;;;;;;7.20;4.30;;;6.40;99.90;;;5.61;93.20;100268.00;5114281;28;20154;-58
2022/02/04 13:36:10;;;;;;;10.57;4.43;;;6.40;99.90;;;6.41;93.68;100419.84;5114245;28;20039;-58
2022/02/04 13:38:49;;;;;;;7.32;4.93;;;6.40;99.90;;;6.26;94.05;100408.38;5095938;28;20047;-59
2022/02/04 13:41:27;;;;;;;11.68;4.80;;;6.30;99.90;;;6.22;93.99;100427.59;5114138;28;20036;-59
2022/02/04 13:44:23;;;;;;;8.82;4.57;;;6.30;99.90;;;6.25;93.72;100445.13;5113976;28;20047;-58
2022/02/04 13:46:59;;;;;;;4.87;3.93;;;6.20;99.90;;;6.26;93.81;100449.50;5114099;28;20043;-58
2022/02/04 13:52:18;;;;;;;8.10;4.37;;;6.20;99.90;;;6.36;94.21;100457.44;5100171;28;20048;-58
2022/02/04 13:54:58;;;;;;;5.03;3.57;;;6.30;99.90;;;6.25;94.46;100463.50;5095800;28;20073;-57
2022/02/04 13:57:38;;;;;;;6.53;3.83;;;6.20;99.90;;;6.25;94.11;100468.75;5113913;28;20594;-57
2022/02/04 14:00:20;;;;;;;6.18;4.15;;;6.20;99.90;;;6.10;94.27;100472.16;5113459;28;20508;-57
2022/02/04 14:02:52;;;;;;;9.70;4.30;;;6.10;99.90;;;6.23;94.99;100478.38;5113936;28;20061;-58
2022/02/04 14:05:35;;;;;;;5.67;4.40;;;6.10;99.90;;;6.26;95.06;100460.00;5113725;28;20040;-58
2022/02/04 14:08:10;;;;;;;8.87;4.00;;;6.30;99.90;;;6.60;95.36;100489.97;5113643;28;20043;-58
2022/02/04 14:10:50;;;;;;;7.50;4.18;;;6.50;99.90;;;6.61;93.96;100481.22;5113703;28;20044;-59
2022/02/04 14:13:25;;;;;;;8.27;4.47;;;6.60;99.90;;;6.76;94.30;100504.94;5113495;28;20097;-58
2022/02/04 14:15:57;;;;;;;5.63;4.05;;;6.70;99.90;;;6.53;93.27;100496.06;5095424;28;20047;-58
2022/02/04 14:18:28;;;;;;;7.13;4.00;;;6.60;99.90;;;6.35;93.99;100491.56;5113498;28;20044;-58
2022/02/04 14:20:57;;;;;;;7.00;4.10;;;6.40;99.90;;;6.27;94.15;100504.66;5113663;28;20036;-59
2022/02/04 14:23:25;;;;;;;6.35;4.25;;;6.30;99.90;;;6.44;94.75;100517.91;5113382;28;20079;-59
2022/02/04 14:26:00;;;;;;;5.32;4.47;;;6.30;99.90;;;6.39;94.02;100524.84;5113309;28;20085;-58
2022/02/04 14:28:39;;;;;;;8.73;4.60;;;6.40;99.90;;;6.39;94.15;100544.13;5113558;28;20039;-58
2022/02/04 14:31:15;;;;;;;5.30;3.97;;;6.30;99.90;;;6.20;94.11;100544.88;5095127;28;20055;-58
2022/02/04 14:36:39;;;;;;;8.75;4.25;;;6.20;99.90;;;6.28;94.93;100564.19;5113436;28;20051;-58
2022/02/04 14:53:20;;;;;;;7.47;4.95;;;6.20;99.90;;;6.18;97.12;100609.63;5113038;28;20040;-58
2022/02/04 14:58:57;;;;;;;9.57;5.50;;;6.20;99.90;;;6.17;95.86;100639.38;5112787;28;20118;-58
2022/02/04 15:01:30;;;;;;;;;;;6.10;99.90;;;6.14;96.86;100639.34;5113726;28;20409;-58
2022/02/04 15:04:05;;;;;;;10.55;4.43;;;6.10;99.90;;;6.29;95.96;100646.50;5112991;28;19919;-58
2022/02/04 15:06:38;;;;;;;8.88;4.32;;;6.20;99.90;;;6.14;95.44;100652.47;5113032;28;20554;-58
2022/02/04 15:09:10;;;;;;;5.70;3.93;;;6.10;99.90;;;6.04;95.05;100657.63;5112882;28;20135;-56
2022/02/04 15:11:43;;;;;;;8.70;4.10;;;6.00;99.90;;;5.95;95.81;100665.38;5094490;28;20051;-58
2022/02/04 15:14:12;;;;;;;7.17;4.43;;;5.90;99.90;;;5.93;96.22;100668.00;5112813;28;20039;-58